createdAt,value
2018-06-27T00:02:25.270Z,75.90
2018-06-27T00:04:53.590Z,75.60
2018-06-27T00:07:22.000Z,75.80
2018-06-27T00:09:50.437Z,75.70
2018-06-27T00:12:18.810Z,75.90
2018-06-27T00:14:47.143Z,76.00
2018-06-27T00:17:15.502Z,76.10
2018-06-27T00:19:43.851Z,76.20
2018-06-27T00:22:12.440Z,76.60
2018-06-27T00:24:40.829Z,76.80
2018-06-27T00:27:09.185Z,77.00
2018-06-27T00:29:37.529Z,77.40
2018-06-27T00:32:05.897Z,78.20
2018-06-27T00:34:34.273Z,77.90
2018-06-27T00:37:02.624Z,78.10
2018-06-27T00:39:30.966Z,78.30
2018-06-27T00:41:59.322Z,78.60
2018-06-27T00:44:27.665Z,78.70
2018-06-27T00:46:56.055Z,78.90
2018-06-27T00:49:24.397Z,78.80
2018-06-27T00:51:52.789Z,78.40
2018-06-27T00:54:21.106Z,78.50
2018-06-27T00:56:49.487Z,78.40
2018-06-27T00:59:17.817Z,78.50
2018-06-27T01:01:46.161Z,78.90
2018-06-27T01:04:14.514Z,79.10
2018-06-27T01:06:42.916Z,79.20
2018-06-27T01:09:11.269Z,80.20
2018-06-27T01:11:39.755Z,79.70
2018-06-27T01:14:08.234Z,79.80
2018-06-27T01:16:36.582Z,80.10
2018-06-27T01:19:05.167Z,80.30
2018-06-27T01:21:34.201Z,80.40
2018-06-27T01:24:02.546Z,80.90
2018-06-27T01:26:30.925Z,81.10
2018-06-27T01:28:59.273Z,81.10
2018-06-27T01:31:27.613Z,81.30
2018-06-27T01:33:55.977Z,81.70
2018-06-27T01:36:24.310Z,81.50
2018-06-27T01:38:52.669Z,82.00
2018-06-27T01:41:21.001Z,81.90
2018-06-27T01:43:49.393Z,82.20
2018-06-27T01:46:17.753Z,82.00
2018-06-27T01:48:46.186Z,82.80
2018-06-27T01:51:14.557Z,82.20
2018-06-27T01:53:42.897Z,82.40
2018-06-27T01:56:11.709Z,82.40
2018-06-27T01:58:40.050Z,82.70
2018-06-27T02:01:08.373Z,82.60
2018-06-27T02:03:36.725Z,83.40
2018-06-27T02:06:05.074Z,83.60
2018-06-27T02:08:33.467Z,83.60
2018-06-27T02:11:01.970Z,83.70
2018-06-27T02:13:30.330Z,83.60
2018-06-27T02:15:58.646Z,84.00
2018-06-27T02:18:27.014Z,83.60
2018-06-27T02:20:55.338Z,83.70
2018-06-27T02:23:23.804Z,83.80
2018-06-27T02:25:52.185Z,83.80
2018-06-27T02:28:20.562Z,84.20
2018-06-27T02:30:48.866Z,83.90
2018-06-27T02:33:22.501Z,84.10
2018-06-27T02:35:50.977Z,84.50
2018-06-27T02:38:19.424Z,84.30
2018-06-27T02:40:47.771Z,84.60
2018-06-27T02:43:16.109Z,84.60
2018-06-27T02:45:44.429Z,84.80
2018-06-27T02:48:12.778Z,84.90
2018-06-27T02:50:41.140Z,85.10
2018-06-27T02:53:09.573Z,85.30
2018-06-27T02:55:37.906Z,85.60
2018-06-27T02:58:06.642Z,85.70
2018-06-27T03:00:35.019Z,85.90
2018-06-27T03:03:03.334Z,85.90
2018-06-27T03:05:31.731Z,86.80
2018-06-27T03:08:00.094Z,86.40
2018-06-27T03:10:28.503Z,86.70
2018-06-27T03:12:56.853Z,86.90
2018-06-27T03:15:25.290Z,87.30
2018-06-27T03:17:53.786Z,87.00
2018-06-27T03:20:22.228Z,87.10
2018-06-27T03:22:50.525Z,87.40
2018-06-27T03:25:18.919Z,87.40
2018-06-27T03:27:47.258Z,86.80
2018-06-27T03:30:15.659Z,87.00
2018-06-27T03:35:12.124Z,87.40
2018-06-27T03:37:40.499Z,87.40
2018-06-27T03:40:08.916Z,87.50
2018-06-27T03:42:37.305Z,87.20
2018-06-27T03:45:05.707Z,88.10
2018-06-27T03:47:34.061Z,87.60
2018-06-27T03:50:02.439Z,87.30
2018-06-27T03:52:30.825Z,87.10
2018-06-27T03:54:59.288Z,86.50
2018-06-27T03:57:27.630Z,86.30
2018-06-27T03:59:56.000Z,86.10
2018-06-27T04:02:24.366Z,85.80
2018-06-27T04:04:52.764Z,85.70
2018-06-27T04:07:21.166Z,85.70
2018-06-27T04:09:49.567Z,85.10
2018-06-27T04:12:17.937Z,85.20
2018-06-27T04:14:46.296Z,85.20
2018-06-27T04:17:14.685Z,85.30
2018-06-27T04:19:43.077Z,85.10
2018-06-27T04:22:11.491Z,85.10
2018-06-27T04:24:40.261Z,85.00
2018-06-27T04:27:08.616Z,85.10
2018-06-27T04:29:37.038Z,85.10
2018-06-27T04:32:05.585Z,85.00
2018-06-27T04:34:33.961Z,84.70
2018-06-27T04:37:02.515Z,84.70
2018-06-27T04:39:30.885Z,84.40
2018-06-27T04:41:59.231Z,83.90
2018-06-27T04:44:27.575Z,84.10
2018-06-27T04:46:55.981Z,84.10
2018-06-27T04:49:24.355Z,84.00
2018-06-27T04:51:52.751Z,83.80
2018-06-27T04:54:27.583Z,83.70
2018-06-27T04:56:56.250Z,83.50
2018-06-27T04:59:24.800Z,83.20
2018-06-27T05:01:53.360Z,83.00
2018-06-27T05:04:21.821Z,82.70
2018-06-27T05:09:18.281Z,82.00
2018-06-27T05:11:46.635Z,81.40
2018-06-27T05:14:14.988Z,80.70
2018-06-27T05:16:43.411Z,80.10
2018-06-27T05:19:11.777Z,79.60
2018-06-27T05:21:40.174Z,79.30
2018-06-27T05:24:08.528Z,79.10
2018-06-27T05:26:37.172Z,78.90
2018-06-27T05:29:05.598Z,78.60
2018-06-27T05:31:33.977Z,78.60
2018-06-27T05:34:02.361Z,78.30
2018-06-27T05:36:30.730Z,78.00
2018-06-27T05:38:59.084Z,78.00
2018-06-27T05:41:27.427Z,78.10
2018-06-27T05:43:55.770Z,78.00
2018-06-27T05:46:24.193Z,77.60
2018-06-27T05:48:54.153Z,77.40
2018-06-27T05:51:22.664Z,77.20
2018-06-27T05:53:51.017Z,76.90
2018-06-27T05:56:19.369Z,76.60
2018-06-27T05:58:47.775Z,76.30
2018-06-27T06:01:16.205Z,75.30
2018-06-27T06:03:44.697Z,75.10
2018-06-27T06:06:13.113Z,74.50
2018-06-27T06:08:41.446Z,74.10
2018-06-27T06:11:09.928Z,74.00
2018-06-27T06:13:38.267Z,73.60
2018-06-27T06:16:06.838Z,72.80
2018-06-27T06:18:35.218Z,72.60
2018-06-27T06:21:03.614Z,72.30
2018-06-27T06:23:31.933Z,71.70
2018-06-27T06:26:00.321Z,71.00
2018-06-27T06:28:28.722Z,71.00
2018-06-27T06:30:57.089Z,70.60
2018-06-27T06:33:25.431Z,70.30
2018-06-27T06:35:53.780Z,69.40
2018-06-27T06:38:22.148Z,69.30
2018-06-27T06:40:50.993Z,69.10
2018-06-27T06:43:19.380Z,68.90
2018-06-27T06:45:47.767Z,68.50
2018-06-27T06:48:16.428Z,68.00
2018-06-27T06:50:44.734Z,67.10
2018-06-27T06:53:13.177Z,67.00
2018-06-27T06:55:41.586Z,66.60
2018-06-27T06:58:09.982Z,66.30
2018-06-27T07:00:38.343Z,66.00
2018-06-27T07:03:06.733Z,65.80
2018-06-27T07:05:35.150Z,65.20
2018-06-27T07:08:03.729Z,64.80
2018-06-27T07:10:32.167Z,64.10
2018-06-27T07:13:00.668Z,63.80
2018-06-27T07:15:29.080Z,63.30
2018-06-27T07:17:57.497Z,63.00
2018-06-27T07:20:25.869Z,62.80
2018-06-27T07:22:54.255Z,62.70
2018-06-27T07:25:22.721Z,62.50
2018-06-27T07:27:51.121Z,62.20
2018-06-27T07:30:19.659Z,61.60
2018-06-27T07:32:48.262Z,60.40
2018-06-27T07:35:16.682Z,60.20
2018-06-27T07:37:45.137Z,60.10
2018-06-27T07:40:13.581Z,59.40
2018-06-27T07:42:42.145Z,59.50
2018-06-27T07:45:10.570Z,58.90
2018-06-27T07:47:39.024Z,59.20
2018-06-27T07:50:07.457Z,58.70
2018-06-27T07:52:36.033Z,58.30
2018-06-27T07:55:04.480Z,58.30
2018-06-27T07:57:32.893Z,58.20
2018-06-27T08:00:01.322Z,57.40
2018-06-27T08:02:29.767Z,57.00
2018-06-27T08:04:58.217Z,56.40
2018-06-27T08:07:26.630Z,55.80
2018-06-27T08:09:55.042Z,55.60
2018-06-27T08:12:23.770Z,55.20
2018-06-27T08:14:52.126Z,54.10
2018-06-27T08:17:20.535Z,53.90
2018-06-27T08:19:49.161Z,53.30
2018-06-27T08:22:17.555Z,53.10
2018-06-27T08:24:46.006Z,53.70
2018-06-27T08:27:14.388Z,53.90
2018-06-27T08:29:42.809Z,54.20
2018-06-27T08:32:11.222Z,53.90
2018-06-27T08:34:39.641Z,53.60
2018-06-27T08:37:08.037Z,53.30
2018-06-27T08:39:36.457Z,53.20
2018-06-27T08:42:04.820Z,52.90
2018-06-27T08:44:33.222Z,52.80
2018-06-27T08:47:01.591Z,52.70
2018-06-27T08:49:29.994Z,52.70
2018-06-27T08:51:58.403Z,52.90
2018-06-27T08:54:26.857Z,52.70
2018-06-27T08:56:55.262Z,52.40
2018-06-27T08:59:23.690Z,52.00
2018-06-27T09:01:52.064Z,52.10
2018-06-27T09:04:20.480Z,51.60
2018-06-27T09:06:48.943Z,51.60
2018-06-27T09:09:17.350Z,51.10
2018-06-27T09:11:45.869Z,51.90
2018-06-27T09:14:14.325Z,52.40
2018-06-27T09:16:42.751Z,51.80
2018-06-27T09:19:11.296Z,51.80
2018-06-27T09:21:39.739Z,52.00
2018-06-27T09:24:08.185Z,52.10
2018-06-27T09:26:36.604Z,52.10
2018-06-27T09:29:05.133Z,52.30
2018-06-27T09:31:33.529Z,52.80
2018-06-27T09:34:02.040Z,52.90
2018-06-27T09:36:30.447Z,51.30
2018-06-27T09:38:58.922Z,51.40
2018-06-27T09:41:27.777Z,51.60
2018-06-27T09:43:56.318Z,51.60
2018-06-27T09:46:24.774Z,51.20
2018-06-27T09:48:53.215Z,50.20
2018-06-27T09:51:21.635Z,48.40
2018-06-27T09:53:50.056Z,48.20
2018-06-27T09:56:18.568Z,47.80
2018-06-27T09:58:46.998Z,47.40
2018-06-27T10:01:15.437Z,47.10
2018-06-27T10:03:44.048Z,45.80
2018-06-27T10:06:12.494Z,45.70
2018-06-27T10:08:41.002Z,44.90
2018-06-27T10:11:09.414Z,45.30
2018-06-27T10:13:37.817Z,43.30
2018-06-27T10:16:06.328Z,42.80
2018-06-27T10:18:34.953Z,41.70
2018-06-27T10:21:03.394Z,38.90
2018-06-27T10:23:31.921Z,36.00
2018-06-27T10:26:00.322Z,34.60
2018-06-27T10:28:31.039Z,32.60
2018-06-27T10:30:59.492Z,31.80
2018-06-27T10:33:27.904Z,31.20
2018-06-27T10:35:56.417Z,30.40
2018-06-27T10:38:24.791Z,30.20
2018-06-27T10:40:55.249Z,29.70
2018-06-27T10:43:23.618Z,29.40
2018-06-27T10:45:52.042Z,28.40
2018-06-27T10:48:20.510Z,28.80
2018-06-27T10:50:48.898Z,29.00
2018-06-27T10:53:17.283Z,29.00
2018-06-27T10:55:45.686Z,29.40
2018-06-27T10:58:14.095Z,29.30
2018-06-27T11:00:42.548Z,28.50
2018-06-27T11:03:10.966Z,28.10
2018-06-27T11:05:39.482Z,28.20
2018-06-27T11:08:07.840Z,28.60
2018-06-27T11:10:36.223Z,29.20
2018-06-27T11:13:05.413Z,30.00
2018-06-27T11:15:33.990Z,31.40
2018-06-27T11:18:02.958Z,30.60
2018-06-27T11:20:31.354Z,30.90
2018-06-27T11:22:59.942Z,31.10
2018-06-27T11:25:29.640Z,31.70
2018-06-27T11:27:58.077Z,32.40
2018-06-27T11:30:26.597Z,31.40
2018-06-27T11:32:55.094Z,31.60
2018-06-27T11:35:23.446Z,30.90
2018-06-27T11:37:51.876Z,29.60
2018-06-27T11:40:20.246Z,29.20
2018-06-27T11:42:49.074Z,28.60
2018-06-27T11:45:17.461Z,28.50
2018-06-27T11:47:45.883Z,29.20
2018-06-27T11:50:14.194Z,29.60
2018-06-27T11:52:42.636Z,29.80
2018-06-27T11:55:12.503Z,30.00
2018-06-27T11:57:42.343Z,31.30
2018-06-27T12:00:10.766Z,31.10
2018-06-27T12:05:08.518Z,30.40
2018-06-27T12:07:36.977Z,30.00
2018-06-27T12:10:05.704Z,30.10
2018-06-27T12:12:34.176Z,29.70
2018-06-27T12:15:02.552Z,28.40
2018-06-27T12:17:31.224Z,27.50
2018-06-27T12:19:59.573Z,26.50
2018-06-27T12:22:28.161Z,26.30
2018-06-27T12:24:58.876Z,25.50
2018-06-27T12:27:27.499Z,26.40
2018-06-27T12:29:55.943Z,27.20
2018-06-27T12:32:24.492Z,28.20
2018-06-27T12:34:52.900Z,29.20
2018-06-27T12:37:21.339Z,29.40
2018-06-27T12:39:49.714Z,28.90
2018-06-27T12:42:18.185Z,27.80
2018-06-27T12:44:46.667Z,26.30
2018-06-27T12:47:15.913Z,24.40
2018-06-27T12:49:44.294Z,23.30
2018-06-27T12:52:12.711Z,24.20
2018-06-27T12:54:41.129Z,24.60
2018-06-27T12:57:09.558Z,24.50
2018-06-27T12:59:38.058Z,24.20
2018-06-27T13:02:07.198Z,23.40
2018-06-27T13:04:35.571Z,22.60
2018-06-27T13:07:04.166Z,21.40
2018-06-27T13:09:32.506Z,20.40
2018-06-27T13:12:00.987Z,19.50
2018-06-27T13:14:29.385Z,18.90
2018-06-27T13:16:57.841Z,17.70
2018-06-27T13:19:26.229Z,17.40
2018-06-27T13:21:54.828Z,17.90
2018-06-27T13:24:23.365Z,19.60
2018-06-27T13:26:51.875Z,20.60
2018-06-27T13:29:20.369Z,20.20
2018-06-27T13:31:48.788Z,19.90
2018-06-27T13:34:17.277Z,19.20
2018-06-27T13:36:45.736Z,18.40
2018-06-27T13:39:14.135Z,18.60
2018-06-27T13:41:42.523Z,18.30
2018-06-27T13:44:10.929Z,17.10
2018-06-27T13:46:39.310Z,16.40
2018-06-27T13:49:07.897Z,16.10
2018-06-27T13:51:36.308Z,16.00
2018-06-27T13:54:04.750Z,15.60
2018-06-27T13:56:33.116Z,15.50
2018-06-27T13:59:02.627Z,15.00
2018-06-27T14:01:31.340Z,14.30
2018-06-27T14:04:00.002Z,13.90
2018-06-27T14:06:28.636Z,14.50
2018-06-27T14:08:57.059Z,14.60
2018-06-27T14:11:25.475Z,14.10
2018-06-27T14:13:53.941Z,14.60
2018-06-27T14:16:22.433Z,14.40
2018-06-27T14:18:51.134Z,14.10
2018-06-27T14:21:19.835Z,13.90
2018-06-27T14:23:48.417Z,13.80
2018-06-27T14:26:16.841Z,13.70
2018-06-27T14:28:45.232Z,13.20
2018-06-27T14:31:13.646Z,13.50
2018-06-27T14:33:42.138Z,13.20
2018-06-27T14:36:10.542Z,13.40
2018-06-27T14:38:38.953Z,13.30
2018-06-27T14:41:07.386Z,13.30
2018-06-27T14:46:03.985Z,13.50
2018-06-27T14:48:32.405Z,13.60
2018-06-27T14:51:00.839Z,13.50
2018-06-27T14:53:29.494Z,13.80
2018-06-27T14:55:57.913Z,13.90
2018-06-27T14:58:26.341Z,13.90
2018-06-27T15:00:54.773Z,13.60
2018-06-27T15:03:23.218Z,13.40
2018-06-27T15:05:51.683Z,13.40
2018-06-27T15:08:20.118Z,13.90
2018-06-27T15:10:48.531Z,14.20
2018-06-27T15:13:16.946Z,14.90
2018-06-27T15:15:45.345Z,15.20
2018-06-27T15:18:13.725Z,14.90
2018-06-27T15:20:42.291Z,14.20
2018-06-27T15:23:10.673Z,14.40
2018-06-27T15:25:39.155Z,15.30
2018-06-27T15:28:07.615Z,16.30
2018-06-27T15:30:36.067Z,16.20
2018-06-27T15:33:04.458Z,15.80
2018-06-27T15:35:32.888Z,15.30
2018-06-27T15:38:01.290Z,16.20
2018-06-27T15:40:29.676Z,17.60
2018-06-27T15:42:58.053Z,18.80
2018-06-27T15:45:26.500Z,18.50
2018-06-27T15:47:54.964Z,17.40
2018-06-27T15:50:23.394Z,16.70
2018-06-27T15:52:51.795Z,15.40
2018-06-27T15:55:20.330Z,15.30
2018-06-27T15:57:48.794Z,15.00
2018-06-27T16:00:17.162Z,14.90
2018-06-27T16:02:45.748Z,14.40
2018-06-27T16:05:14.187Z,14.40
2018-06-27T16:07:42.706Z,15.20
2018-06-27T16:10:11.593Z,15.70
2018-06-27T16:12:40.247Z,16.50
2018-06-27T16:15:08.756Z,17.80
2018-06-27T16:17:37.218Z,18.50
2018-06-27T16:20:06.105Z,19.10
2018-06-27T16:22:34.550Z,18.50
2018-06-27T16:25:03.258Z,18.30
2018-06-27T16:27:31.651Z,18.80
2018-06-27T16:30:00.250Z,18.50
2018-06-27T16:32:28.811Z,18.30
2018-06-27T16:34:57.210Z,18.10
2018-06-27T16:37:25.601Z,17.60
2018-06-27T16:39:54.038Z,16.70
2018-06-27T16:42:22.423Z,16.10
2018-06-27T16:44:50.857Z,16.00
2018-06-27T16:49:47.493Z,18.80
2018-06-27T16:52:15.895Z,19.30
2018-06-27T16:54:44.360Z,20.10
2018-06-27T16:57:12.719Z,20.00
2018-06-27T16:59:41.087Z,20.60
2018-06-27T17:02:09.498Z,20.90
2018-06-27T17:04:37.949Z,20.80
2018-06-27T17:07:06.360Z,19.90
2018-06-27T17:09:34.754Z,20.20
2018-06-27T17:12:03.247Z,20.30
2018-06-27T17:14:31.633Z,19.90
2018-06-27T17:17:00.172Z,19.20
2018-06-27T17:19:34.089Z,19.30
2018-06-27T17:22:02.641Z,19.80
2018-06-27T17:24:31.236Z,20.90
2018-06-27T17:26:59.654Z,21.70
2018-06-27T17:29:28.077Z,22.40
2018-06-27T17:31:56.521Z,22.60
2018-06-27T17:34:25.052Z,22.70
2018-06-27T17:36:53.506Z,21.80
2018-06-27T17:39:21.911Z,20.30
2018-06-27T17:41:50.326Z,19.00
2018-06-27T17:44:18.854Z,18.60
2018-06-27T17:46:50.371Z,17.60
2018-06-27T17:49:18.753Z,17.00
2018-06-27T17:54:15.627Z,17.50
2018-06-27T17:56:44.228Z,16.70
2018-06-27T17:59:12.634Z,16.70
2018-06-27T18:01:41.156Z,17.00
2018-06-27T18:04:09.541Z,17.50
2018-06-27T18:06:38.320Z,17.10
2018-06-27T18:09:09.401Z,17.00
2018-06-27T18:11:38.431Z,17.00
2018-06-27T18:14:06.937Z,17.10
2018-06-27T18:16:35.963Z,17.60
2018-06-27T18:19:04.366Z,17.40
2018-06-27T18:21:33.157Z,17.40
2018-06-27T18:24:01.698Z,17.70
2018-06-27T18:26:30.217Z,18.30
2018-06-27T18:28:58.679Z,19.00
2018-06-27T18:31:27.338Z,19.70
2018-06-27T18:33:55.881Z,20.10
2018-06-27T18:36:24.581Z,20.40
2018-06-27T18:38:53.170Z,20.90
2018-06-27T18:41:21.764Z,21.40
2018-06-27T18:43:50.784Z,21.90
2018-06-27T18:46:19.466Z,22.10
2018-06-27T18:48:48.539Z,22.30
2018-06-27T18:51:17.826Z,22.60
2018-06-27T18:53:46.795Z,23.00
2018-06-27T18:56:15.499Z,23.20
2018-06-27T18:58:44.019Z,23.90
2018-06-27T19:01:12.410Z,24.60
2018-06-27T19:03:40.851Z,25.10
2018-06-27T19:08:38.437Z,26.20
2018-06-27T19:11:07.380Z,26.70
2018-06-27T19:13:35.979Z,27.40
2018-06-27T19:16:04.508Z,28.30
2018-06-27T19:18:32.896Z,29.20
2018-06-27T19:21:01.262Z,30.00
2018-06-27T19:23:30.294Z,30.70
2018-06-27T19:25:59.509Z,31.50
2018-06-27T19:28:28.581Z,32.40
2018-06-27T19:30:57.079Z,32.90
2018-06-27T19:33:25.496Z,33.60
2018-06-27T19:35:54.002Z,34.20
2018-06-27T19:38:22.374Z,34.60
2018-06-27T19:40:51.513Z,35.00
2018-06-27T19:43:20.799Z,35.60
2018-06-27T19:45:49.255Z,35.80
2018-06-27T19:48:17.593Z,36.20
2018-06-27T19:50:45.976Z,36.50
2018-06-27T19:53:14.901Z,36.60
2018-06-27T19:55:43.399Z,37.00
2018-06-27T19:58:12.215Z,37.50
2018-06-27T20:00:40.598Z,37.90
2018-06-27T20:03:09.391Z,38.20
2018-06-27T20:05:37.806Z,38.50
2018-06-27T20:08:06.303Z,38.90
2018-06-27T20:10:35.257Z,39.10
2018-06-27T20:13:03.652Z,39.30
2018-06-27T20:15:32.076Z,39.50
2018-06-27T20:18:00.449Z,40.00
2018-06-27T20:20:29.034Z,40.10
2018-06-27T20:22:57.689Z,40.40
2018-06-27T20:25:26.034Z,40.70
2018-06-27T20:27:54.426Z,40.60
2018-06-27T20:30:22.766Z,40.70
2018-06-27T20:32:51.115Z,41.50
2018-06-27T20:35:19.487Z,41.00
2018-06-27T20:37:47.813Z,41.30
2018-06-27T20:40:16.253Z,41.40
2018-06-27T20:42:44.616Z,41.50
2018-06-27T20:45:13.021Z,41.70
2018-06-27T20:47:41.351Z,41.90
2018-06-27T20:50:09.827Z,42.10
2018-06-27T20:52:38.194Z,42.30
2018-06-27T20:55:06.642Z,42.60
2018-06-27T20:57:34.991Z,42.60
2018-06-27T21:00:03.392Z,42.60
2018-06-27T21:02:31.789Z,42.70
2018-06-27T21:05:00.159Z,42.80
2018-06-27T21:07:28.526Z,43.00
2018-06-27T21:09:56.885Z,43.10
2018-06-27T21:12:25.219Z,43.00
2018-06-27T21:14:53.665Z,43.00
2018-06-27T21:17:22.007Z,43.20
2018-06-27T21:19:50.412Z,43.40
2018-06-27T21:22:18.784Z,43.60
2018-06-27T21:27:15.599Z,43.70
2018-06-27T21:29:44.216Z,43.90
2018-06-27T21:32:12.622Z,43.80
2018-06-27T21:34:41.062Z,44.00
2018-06-27T21:37:09.386Z,44.30
2018-06-27T21:39:37.720Z,44.30
2018-06-27T21:42:06.085Z,44.40
2018-06-27T21:44:34.455Z,44.50
2018-06-27T21:47:02.758Z,44.80
2018-06-27T21:49:31.099Z,45.70
2018-06-27T21:51:59.417Z,45.20
2018-06-27T21:54:27.835Z,45.20
2018-06-27T21:56:56.163Z,45.40
2018-06-27T21:59:24.523Z,45.40
2018-06-27T22:01:52.884Z,45.70
2018-06-27T22:04:21.248Z,45.80
2018-06-27T22:06:49.631Z,46.00
2018-06-27T22:09:18.107Z,46.40
2018-06-27T22:11:46.525Z,46.30
2018-06-27T22:14:14.922Z,46.50
2018-06-27T22:16:43.312Z,46.60
2018-06-27T22:19:11.658Z,46.90
2018-06-27T22:21:40.143Z,47.10
2018-06-27T22:24:08.563Z,47.00
2018-06-27T22:26:36.946Z,47.40
2018-06-27T22:29:05.330Z,48.20
2018-06-27T22:31:33.826Z,47.90
2018-06-27T22:34:02.238Z,47.80
2018-06-27T22:38:58.783Z,47.80
2018-06-27T22:41:27.219Z,47.70
2018-06-27T22:43:55.742Z,47.60
2018-06-27T22:46:24.158Z,47.60
2018-06-27T22:48:52.517Z,47.60
2018-06-27T22:51:20.951Z,47.90
2018-06-27T22:53:49.329Z,47.90
2018-06-27T22:56:17.701Z,48.00
2018-06-27T22:58:46.914Z,48.00
2018-06-27T23:01:15.343Z,48.20
2018-06-27T23:03:43.718Z,48.30
2018-06-27T23:06:12.174Z,48.40
2018-06-27T23:08:40.798Z,48.40
2018-06-27T23:11:09.338Z,48.60
2018-06-27T23:13:38.010Z,48.70
2018-06-27T23:16:06.713Z,48.90
2018-06-27T23:18:35.378Z,49.10
2018-06-27T23:21:03.928Z,49.40
2018-06-27T23:23:32.294Z,49.50
2018-06-27T23:26:00.714Z,49.60
2018-06-27T23:28:29.097Z,49.60
2018-06-27T23:30:57.478Z,49.70
2018-06-27T23:33:25.869Z,50.50
2018-06-27T23:35:54.279Z,49.80
2018-06-27T23:38:22.683Z,49.90
2018-06-27T23:40:51.074Z,50.00
2018-06-27T23:43:19.447Z,50.20
2018-06-27T23:45:47.833Z,50.40
2018-06-27T23:48:16.190Z,50.40
2018-06-27T23:50:44.606Z,50.60
2018-06-27T23:53:13.086Z,50.80
2018-06-27T23:55:41.522Z,50.90
2018-06-27T23:58:09.873Z,50.90
